createdAt,value
2023-02-18T00:01:26.558Z,3.66
2023-02-18T00:03:54.139Z,3.70
2023-02-18T00:06:23.572Z,3.72
2023-02-18T00:08:51.589Z,3.82
2023-02-18T00:11:19.903Z,3.76
2023-02-18T00:13:55.205Z,3.75
2023-02-18T00:16:22.953Z,3.65
2023-02-18T00:18:51.036Z,3.65
2023-02-18T00:21:18.202Z,3.65
2023-02-18T00:23:47.069Z,3.62
2023-02-18T00:26:15.821Z,3.66
2023-02-18T00:28:43.745Z,3.55
2023-02-18T00:31:13.406Z,3.58
2023-02-18T00:33:41.344Z,3.52
2023-02-18T00:36:10.792Z,3.51
2023-02-18T00:38:38.650Z,3.58
2023-02-18T00:41:07.513Z,3.60
2023-02-18T00:43:35.184Z,3.61
2023-02-18T00:46:03.393Z,3.51
2023-02-18T00:48:32.366Z,3.49
2023-02-18T00:51:00.961Z,3.52
2023-02-18T00:53:29.055Z,3.52
2023-02-18T00:55:57.215Z,3.48
2023-02-18T00:58:25.555Z,3.47
2023-02-18T01:00:53.399Z,3.54
2023-02-18T01:03:22.830Z,3.57
2023-02-18T01:05:50.812Z,3.57
2023-02-18T01:08:19.902Z,3.35
2023-02-18T01:10:50.593Z,3.25
2023-02-18T01:13:18.488Z,3.27
2023-02-18T01:15:47.344Z,3.30
2023-02-18T01:18:15.239Z,3.35
2023-02-18T01:20:43.640Z,3.32
2023-02-18T01:23:13.266Z,3.32
2023-02-18T01:25:42.090Z,3.38
2023-02-18T01:28:13.018Z,3.41
2023-02-18T01:30:41.857Z,3.42
2023-02-18T01:33:10.767Z,3.37
2023-02-18T01:35:40.724Z,3.38
2023-02-18T01:38:08.744Z,3.32
2023-02-18T01:40:36.837Z,3.30
2023-02-18T01:43:04.456Z,3.33
2023-02-18T01:45:34.950Z,3.31
2023-02-18T01:48:04.375Z,3.29
2023-02-18T01:50:34.814Z,3.39
2023-02-18T01:53:04.216Z,3.39
2023-02-18T01:55:32.001Z,3.34
2023-02-18T01:58:01.800Z,3.37
2023-02-18T02:00:32.012Z,3.34
2023-02-18T02:03:00.896Z,3.30
2023-02-18T02:05:31.896Z,3.30
2023-02-18T02:08:00.802Z,3.27
2023-02-18T02:10:36.986Z,3.18
2023-02-18T02:13:04.615Z,3.20
2023-02-18T02:15:33.539Z,3.16
2023-02-18T02:18:04.668Z,3.13
2023-02-18T02:20:38.775Z,3.15
2023-02-18T02:23:32.534Z,3.15
2023-02-18T02:26:12.013Z,3.17
2023-02-18T02:28:51.575Z,3.21
2023-02-18T02:31:30.873Z,3.19
2023-02-18T02:34:17.793Z,3.06
2023-02-18T02:37:05.765Z,3.15
2023-02-18T02:39:39.082Z,3.09
2023-02-18T02:42:31.299Z,3.02
2023-02-18T02:45:17.954Z,2.95
2023-02-18T02:47:51.796Z,2.86
2023-02-18T02:50:38.312Z,2.86
2023-02-18T02:53:18.306Z,2.83
2023-02-18T02:55:46.690Z,2.88
2023-02-18T02:58:16.323Z,2.85
2023-02-18T03:00:49.056Z,2.83
2023-02-18T03:03:16.525Z,2.80
2023-02-18T03:06:02.725Z,2.73
2023-02-18T03:08:39.806Z,2.71
2023-02-18T03:11:12.707Z,2.67
2023-02-18T03:13:53.823Z,2.71
2023-02-18T03:16:24.473Z,2.61
2023-02-18T03:18:57.497Z,2.64
2023-02-18T03:21:32.157Z,2.56
2023-02-18T03:24:31.453Z,2.54
2023-02-18T03:27:01.146Z,2.54
2023-02-18T03:29:30.137Z,2.52
2023-02-18T03:32:01.036Z,2.46
2023-02-18T03:34:34.174Z,2.52
2023-02-18T03:37:02.537Z,2.49
2023-02-18T03:39:31.068Z,2.57
2023-02-18T03:41:58.474Z,2.58
2023-02-18T03:44:26.239Z,2.56
2023-02-18T03:46:53.916Z,2.48
2023-02-18T03:49:21.484Z,2.58
2023-02-18T03:51:48.895Z,2.41
2023-02-18T03:54:16.308Z,2.38
2023-02-18T03:56:44.306Z,2.34
2023-02-18T03:59:12.127Z,2.20
2023-02-18T04:01:39.824Z,2.31
2023-02-18T04:04:11.830Z,2.16
2023-02-18T04:06:43.600Z,2.01
2023-02-18T04:09:16.376Z,1.94
2023-02-18T04:11:43.950Z,1.89
2023-02-18T04:14:13.419Z,1.93
2023-02-18T04:16:42.675Z,1.88
2023-02-18T04:19:10.066Z,1.77
2023-02-18T04:21:37.281Z,1.71
2023-02-18T04:24:04.602Z,1.68
2023-02-18T04:26:31.884Z,1.60
2023-02-18T04:28:59.043Z,1.58
2023-02-18T04:31:26.410Z,1.54
2023-02-18T04:33:53.813Z,1.64
2023-02-18T04:36:21.107Z,1.56
2023-02-18T04:38:48.311Z,1.48
2023-02-18T04:41:15.477Z,1.51
2023-02-18T04:43:42.659Z,1.69
2023-02-18T04:46:10.137Z,1.58
2023-02-18T04:48:37.620Z,1.48
2023-02-18T04:51:04.950Z,1.40
2023-02-18T04:53:32.152Z,1.34
2023-02-18T04:55:59.460Z,1.30
2023-02-18T04:58:26.673Z,1.31
2023-02-18T05:00:54.186Z,1.36
2023-02-18T05:03:22.051Z,1.53
2023-02-18T05:05:49.346Z,1.46
2023-02-18T05:08:16.593Z,1.41
2023-02-18T05:10:43.845Z,1.44
2023-02-18T05:13:11.052Z,1.46
2023-02-18T05:15:38.258Z,1.38
2023-02-18T05:18:05.535Z,1.33
2023-02-18T05:20:32.815Z,1.43
2023-02-18T05:23:00.118Z,1.38
2023-02-18T05:25:27.353Z,1.47
2023-02-18T05:27:54.685Z,1.47
2023-02-18T05:30:21.963Z,1.50
2023-02-18T05:32:49.352Z,1.57
2023-02-18T05:35:16.714Z,1.64
2023-02-18T05:37:43.977Z,1.82
2023-02-18T05:40:12.256Z,1.71
2023-02-18T05:42:39.399Z,1.64
2023-02-18T05:45:06.903Z,1.60
2023-02-18T05:47:34.258Z,1.68
2023-02-18T05:50:01.597Z,1.78
2023-02-18T05:52:28.795Z,1.61
2023-02-18T05:54:56.296Z,1.53
2023-02-18T05:57:23.568Z,1.67
2023-02-18T05:59:50.763Z,1.71
2023-02-18T06:02:18.005Z,1.67
2023-02-18T06:04:45.234Z,1.75
2023-02-18T06:07:12.516Z,1.75
2023-02-18T06:09:39.747Z,1.77
2023-02-18T06:12:07.088Z,1.81
2023-02-18T06:14:34.334Z,1.84
2023-02-18T06:17:01.456Z,1.79
2023-02-18T06:19:28.668Z,1.51
2023-02-18T06:21:56.280Z,1.57
2023-02-18T06:24:23.512Z,1.90
2023-02-18T06:26:50.732Z,1.78
2023-02-18T06:29:18.003Z,1.72
2023-02-18T06:31:45.325Z,1.85
2023-02-18T06:34:12.712Z,1.77
2023-02-18T06:36:40.428Z,1.71
2023-02-18T06:39:07.945Z,1.61
2023-02-18T06:41:35.093Z,1.58
2023-02-18T06:44:02.333Z,1.54
2023-02-18T06:46:29.723Z,1.49
2023-02-18T06:48:56.955Z,1.52
2023-02-18T06:51:24.300Z,1.45
2023-02-18T06:53:51.710Z,1.38
2023-02-18T06:56:18.900Z,1.34
2023-02-18T06:58:46.150Z,1.28
2023-02-18T07:01:13.308Z,1.36
2023-02-18T07:03:40.528Z,1.30
2023-02-18T07:06:08.092Z,1.36
2023-02-18T07:08:37.606Z,1.43
2023-02-18T07:11:05.302Z,1.42
2023-02-18T07:13:32.526Z,1.46
2023-02-18T07:15:59.762Z,1.54
2023-02-18T07:18:26.965Z,1.67
2023-02-18T07:20:54.260Z,1.53
2023-02-18T07:23:21.462Z,1.50
2023-02-18T07:25:48.870Z,1.50
2023-02-18T07:28:16.555Z,1.50
2023-02-18T07:30:43.792Z,1.49
2023-02-18T07:33:11.059Z,1.44
2023-02-18T07:35:38.328Z,1.45
2023-02-18T07:38:05.756Z,1.67
2023-02-18T07:40:33.001Z,1.58
2023-02-18T07:43:00.216Z,1.69
2023-02-18T07:45:27.472Z,1.76
2023-02-18T07:47:54.753Z,1.82
2023-02-18T07:50:21.952Z,1.91
2023-02-18T07:52:49.159Z,1.97
2023-02-18T07:55:17.442Z,2.03
2023-02-18T07:58:02.375Z,2.09
2023-02-18T08:00:29.685Z,2.32
2023-02-18T08:02:56.986Z,2.40
2023-02-18T08:05:24.236Z,2.37
2023-02-18T08:07:51.471Z,2.38
2023-02-18T08:10:18.617Z,2.45
2023-02-18T08:12:46.120Z,2.47
2023-02-18T08:15:13.662Z,2.49
2023-02-18T08:17:40.939Z,2.48
2023-02-18T08:20:08.280Z,2.45
2023-02-18T08:22:35.503Z,2.50
2023-02-18T08:25:02.667Z,2.50
2023-02-18T08:27:29.938Z,2.52
2023-02-18T08:29:57.203Z,2.65
2023-02-18T08:32:27.093Z,2.60
2023-02-18T08:34:54.388Z,2.66
2023-02-18T08:37:21.564Z,2.66
2023-02-18T08:39:49.038Z,2.59
2023-02-18T08:42:16.321Z,2.66
2023-02-18T08:44:43.598Z,2.69
2023-02-18T08:48:18.027Z,2.65
2023-02-18T08:49:58.052Z,2.61
2023-02-18T08:52:25.863Z,2.59
2023-02-18T08:54:53.028Z,2.60
2023-02-18T08:57:20.220Z,2.62
2023-02-18T08:59:47.552Z,2.63
2023-02-18T09:02:15.075Z,2.70
2023-02-18T09:04:42.348Z,2.88
2023-02-18T09:07:09.568Z,2.88
2023-02-18T09:09:36.756Z,2.92
2023-02-18T09:12:04.447Z,2.93
2023-02-18T09:14:31.655Z,2.86
2023-02-18T09:16:58.846Z,2.82
2023-02-18T09:19:26.295Z,2.93
2023-02-18T09:21:53.538Z,2.86
2023-02-18T09:24:20.989Z,2.94
2023-02-18T09:26:48.224Z,3.00
2023-02-18T09:29:16.219Z,3.12
2023-02-18T09:31:43.555Z,3.26
2023-02-18T09:34:10.762Z,3.29
2023-02-18T09:36:38.998Z,3.25
2023-02-18T09:39:06.261Z,3.24
2023-02-18T09:41:44.115Z,3.23
2023-02-18T09:44:16.699Z,3.41
2023-02-18T09:47:03.592Z,3.51
2023-02-18T09:49:34.496Z,3.54
2023-02-18T09:52:12.916Z,3.56
2023-02-18T09:54:40.369Z,3.67
2023-02-18T09:57:15.788Z,3.87
2023-02-18T09:59:44.375Z,3.85
2023-02-18T10:02:17.577Z,3.84
2023-02-18T10:04:46.041Z,3.74
2023-02-18T10:07:19.668Z,3.67
2023-02-18T10:09:47.559Z,3.74
2023-02-18T10:12:16.591Z,3.91
2023-02-18T10:14:46.588Z,3.88
2023-02-18T10:17:15.961Z,3.90
2023-02-18T10:19:45.573Z,3.97
2023-02-18T10:22:15.080Z,4.04
2023-02-18T10:24:42.457Z,4.21
2023-02-18T10:27:10.844Z,4.20
2023-02-18T10:29:38.128Z,4.24
2023-02-18T10:32:12.917Z,4.30
2023-02-18T10:34:47.833Z,4.31
2023-02-18T10:37:35.425Z,4.29
2023-02-18T10:40:08.716Z,4.33
2023-02-18T10:42:39.718Z,4.35
2023-02-18T10:45:29.942Z,4.38
2023-02-18T10:48:10.994Z,4.44
2023-02-18T10:50:40.411Z,4.42
2023-02-18T10:53:17.063Z,4.31
2023-02-18T10:55:46.175Z,4.49
2023-02-18T10:58:33.517Z,4.58
2023-02-18T11:01:05.053Z,4.62
2023-02-18T11:03:40.248Z,4.86
2023-02-18T11:06:15.765Z,5.09
2023-02-18T11:08:45.005Z,4.91
2023-02-18T11:11:17.833Z,4.87
2023-02-18T11:13:45.117Z,4.93
2023-02-18T11:16:15.872Z,4.99
2023-02-18T11:18:46.833Z,4.97
2023-02-18T11:21:21.737Z,4.80
2023-02-18T11:23:51.236Z,4.79
2023-02-18T11:26:22.324Z,4.80
2023-02-18T11:28:50.861Z,4.84
2023-02-18T11:31:22.049Z,4.75
2023-02-18T11:33:51.342Z,4.68
2023-02-18T11:36:22.226Z,4.79
2023-02-18T11:39:16.375Z,5.00
2023-02-18T11:41:46.666Z,5.18
2023-02-18T11:44:35.581Z,5.12
2023-02-18T11:47:19.521Z,5.32
2023-02-18T11:49:59.843Z,5.33
2023-02-18T11:52:28.567Z,5.35
2023-02-18T11:55:15.750Z,5.45
2023-02-18T11:57:54.953Z,5.38
2023-02-18T12:00:24.142Z,5.31
2023-02-18T12:02:54.584Z,5.36
2023-02-18T12:05:24.105Z,5.50
2023-02-18T12:07:55.665Z,5.57
2023-02-18T12:10:27.837Z,5.70
2023-02-18T12:13:24.437Z,5.65
2023-02-18T12:16:10.208Z,5.69
2023-02-18T12:18:39.561Z,5.76
2023-02-18T12:21:16.569Z,5.80
2023-02-18T12:24:00.830Z,5.83
2023-02-18T12:26:31.150Z,5.78
2023-02-18T12:29:19.476Z,5.76
2023-02-18T12:31:56.619Z,6.04
2023-02-18T12:34:35.475Z,6.02
2023-02-18T12:37:05.853Z,6.29
2023-02-18T12:39:46.291Z,6.25
2023-02-18T12:42:22.904Z,6.27
2023-02-18T12:45:08.743Z,6.42
2023-02-18T12:47:44.176Z,6.37
2023-02-18T12:50:18.240Z,6.39
2023-02-18T12:52:58.854Z,6.54
2023-02-18T12:55:46.518Z,6.59
2023-02-18T12:58:16.811Z,6.73
2023-02-18T13:01:00.431Z,6.72
2023-02-18T13:03:47.179Z,6.89
2023-02-18T13:06:41.497Z,6.94
2023-02-18T13:09:28.714Z,7.17
2023-02-18T13:12:05.384Z,7.19
2023-02-18T13:14:57.262Z,7.09
2023-02-18T13:17:26.073Z,7.17
2023-02-18T13:19:59.705Z,7.28
2023-02-18T13:22:28.765Z,7.49
2023-02-18T13:24:57.864Z,7.47
2023-02-18T13:27:42.035Z,7.64
2023-02-18T13:30:15.359Z,7.67
2023-02-18T13:32:48.780Z,7.76
2023-02-18T13:35:16.018Z,7.86
2023-02-18T13:37:43.477Z,7.65
2023-02-18T13:40:22.606Z,7.82
2023-02-18T13:42:53.452Z,7.99
2023-02-18T13:45:25.717Z,8.03
2023-02-18T13:47:54.129Z,8.21
2023-02-18T13:50:27.082Z,8.17
2023-02-18T13:53:03.439Z,8.16
2023-02-18T13:55:43.213Z,8.25
2023-02-18T13:58:17.421Z,8.31
2023-02-18T14:00:48.940Z,8.37
2023-02-18T14:03:30.971Z,8.48
2023-02-18T14:05:59.889Z,8.53
2023-02-18T14:08:33.783Z,8.56
2023-02-18T14:11:13.794Z,8.45
2023-02-18T14:13:41.925Z,8.65
2023-02-18T14:16:10.598Z,8.63
2023-02-18T14:18:40.934Z,8.63
2023-02-18T14:21:11.222Z,8.78
2023-02-18T14:23:39.285Z,8.80
2023-02-18T14:26:19.467Z,8.76
2023-02-18T14:28:55.792Z,8.76
2023-02-18T14:31:30.591Z,8.79
2023-02-18T14:34:04.516Z,8.93
2023-02-18T14:36:38.716Z,9.03
2023-02-18T14:39:13.049Z,9.02
2023-02-18T14:41:40.751Z,9.16
2023-02-18T14:44:17.043Z,9.15
2023-02-18T14:47:20.068Z,9.36
2023-02-18T14:49:52.692Z,9.29
2023-02-18T14:52:21.295Z,9.34
2023-02-18T14:54:50.981Z,9.45
2023-02-18T14:57:23.830Z,9.41
2023-02-18T14:59:57.439Z,9.27
2023-02-18T15:02:30.894Z,9.40
2023-02-18T15:05:15.655Z,9.29
2023-02-18T15:07:54.514Z,9.24
2023-02-18T15:10:21.994Z,9.27
2023-02-18T15:12:49.348Z,9.37
2023-02-18T15:15:17.605Z,9.46
2023-02-18T15:17:48.301Z,9.30
2023-02-18T15:20:15.763Z,9.22
2023-02-18T15:22:43.443Z,9.13
2023-02-18T15:25:14.405Z,9.20
2023-02-18T15:27:45.991Z,9.17
2023-02-18T15:30:21.579Z,9.29
2023-02-18T15:32:52.989Z,9.23
2023-02-18T15:35:23.648Z,9.13
2023-02-18T15:37:52.783Z,9.29
2023-02-18T15:40:21.853Z,9.32
2023-02-18T15:42:53.265Z,9.32
2023-02-18T15:45:38.982Z,9.19
2023-02-18T15:48:06.457Z,9.02
2023-02-18T15:50:36.554Z,9.06
2023-02-18T15:53:09.196Z,9.06
2023-02-18T15:55:40.574Z,8.93
2023-02-18T15:58:12.479Z,8.88
2023-02-18T16:00:41.128Z,8.76
2023-02-18T16:03:11.375Z,8.75
2023-02-18T16:05:39.646Z,8.73
2023-02-18T16:08:13.069Z,8.72
2023-02-18T16:10:45.588Z,8.69
2023-02-18T16:13:14.890Z,8.60
2023-02-18T16:15:43.553Z,8.63
2023-02-18T16:18:29.739Z,8.65
2023-02-18T16:21:20.352Z,8.53
2023-02-18T16:24:01.257Z,8.48
2023-02-18T16:26:31.368Z,8.45
2023-02-18T16:29:21.564Z,8.22
2023-02-18T16:31:49.107Z,8.16
2023-02-18T16:34:18.322Z,8.12
2023-02-18T16:37:05.069Z,8.02
2023-02-18T16:39:33.940Z,7.95
2023-02-18T16:42:01.301Z,7.80
2023-02-18T16:44:28.551Z,7.66
2023-02-18T16:46:56.919Z,7.58
2023-02-18T16:49:24.259Z,7.45
2023-02-18T16:51:51.658Z,7.36
2023-02-18T16:54:18.977Z,7.29
2023-02-18T16:56:46.236Z,7.20
2023-02-18T16:59:13.466Z,7.14
2023-02-18T17:01:44.149Z,7.00
2023-02-18T17:04:12.535Z,6.92
2023-02-18T17:06:40.027Z,6.83
2023-02-18T17:09:27.573Z,6.74
2023-02-18T17:11:56.201Z,6.64
2023-02-18T17:14:23.642Z,6.59
2023-02-18T17:16:53.538Z,6.51
2023-02-18T17:19:21.504Z,6.45
2023-02-18T17:21:49.180Z,6.39
2023-02-18T17:24:17.707Z,6.33
2023-02-18T17:26:45.467Z,6.29
2023-02-18T17:29:14.040Z,6.20
2023-02-18T17:31:47.389Z,6.13
2023-02-18T17:34:19.348Z,6.09
2023-02-18T17:36:49.320Z,6.06
2023-02-18T17:39:17.718Z,5.98
2023-02-18T17:41:45.410Z,5.90
2023-02-18T17:44:21.295Z,5.88
2023-02-18T17:46:50.081Z,5.86
2023-02-18T17:49:17.666Z,5.83
2023-02-18T17:51:45.141Z,5.80
2023-02-18T17:54:14.267Z,5.74
2023-02-18T17:56:42.407Z,5.73
2023-02-18T17:59:10.398Z,5.68
2023-02-18T18:01:38.245Z,5.66
2023-02-18T18:04:06.742Z,5.65
2023-02-18T18:06:36.163Z,5.58
2023-02-18T18:09:03.570Z,5.56
2023-02-18T18:11:31.161Z,5.49
2023-02-18T18:13:59.823Z,5.50
2023-02-18T18:16:27.283Z,5.47
2023-02-18T18:18:54.766Z,5.42
2023-02-18T18:21:24.097Z,5.38
2023-02-18T18:23:51.486Z,5.37
2023-02-18T18:26:18.902Z,5.33
2023-02-18T18:28:46.178Z,5.30
2023-02-18T18:31:18.877Z,5.26
2023-02-18T18:33:50.695Z,5.25
2023-02-18T18:36:19.808Z,5.17
2023-02-18T18:38:47.385Z,5.13
2023-02-18T18:41:15.685Z,5.17
2023-02-18T18:43:43.193Z,5.16
2023-02-18T18:46:11.017Z,5.14
2023-02-18T18:48:39.049Z,5.09
2023-02-18T18:51:06.452Z,5.03
2023-02-18T18:53:35.504Z,5.00
2023-02-18T18:56:04.076Z,4.96
2023-02-18T18:58:31.657Z,4.93
2023-02-18T19:01:00.418Z,4.86
2023-02-18T19:03:28.376Z,4.82
2023-02-18T19:05:55.922Z,4.88
2023-02-18T19:08:23.489Z,4.94
2023-02-18T19:10:55.172Z,4.94
2023-02-18T19:13:26.914Z,5.03
2023-02-18T19:16:01.753Z,5.07
2023-02-18T19:18:29.990Z,5.08
2023-02-18T19:20:57.270Z,5.18
2023-02-18T19:23:24.505Z,5.22
2023-02-18T19:25:51.718Z,5.22
2023-02-18T19:28:20.783Z,5.16
2023-02-18T19:30:48.120Z,5.13
2023-02-18T19:33:15.636Z,5.22
2023-02-18T19:35:43.843Z,5.14
2023-02-18T19:38:12.325Z,5.11
2023-02-18T19:40:39.997Z,5.08
2023-02-18T19:43:07.960Z,5.04
2023-02-18T19:45:35.416Z,5.01
2023-02-18T19:48:02.632Z,5.00
2023-02-18T19:50:32.501Z,4.97
2023-02-18T19:53:00.555Z,4.94
2023-02-18T19:55:28.304Z,4.88
2023-02-18T19:57:55.588Z,4.87
2023-02-18T20:00:23.695Z,4.82
2023-02-18T20:02:51.677Z,4.79
2023-02-18T20:05:19.544Z,4.73
2023-02-18T20:07:48.047Z,4.71
2023-02-18T20:10:17.574Z,4.68
2023-02-18T20:12:45.254Z,4.64
2023-02-18T20:15:13.063Z,4.64
2023-02-18T20:17:40.599Z,4.57
2023-02-18T20:20:08.798Z,4.53
2023-02-18T20:22:37.281Z,4.53
2023-02-18T20:25:05.298Z,4.52
2023-02-18T20:27:34.350Z,4.47
2023-02-18T20:30:03.578Z,4.43
2023-02-18T20:32:34.199Z,4.41
2023-02-18T20:35:04.258Z,4.41
2023-02-18T20:37:34.306Z,4.40
2023-02-18T20:40:02.432Z,4.31
2023-02-18T20:42:30.649Z,4.25
2023-02-18T20:44:59.459Z,4.27
2023-02-18T20:47:27.498Z,4.18
2023-02-18T20:49:56.273Z,4.20
2023-02-18T20:52:24.790Z,4.13
2023-02-18T20:54:53.056Z,4.16
2023-02-18T20:57:21.719Z,4.14
2023-02-18T20:59:49.313Z,4.11
2023-02-18T21:02:17.708Z,4.13
2023-02-18T21:04:45.452Z,4.12
2023-02-18T21:07:13.213Z,4.09
2023-02-18T21:09:41.184Z,4.06
2023-02-18T21:12:09.878Z,4.01
2023-02-18T21:14:37.880Z,3.92
2023-02-18T21:17:06.126Z,4.00
2023-02-18T21:19:34.423Z,4.03
2023-02-18T21:22:01.839Z,3.95
2023-02-18T21:24:29.455Z,3.99
2023-02-18T21:26:56.947Z,4.01
2023-02-18T21:29:24.550Z,3.96
2023-02-18T21:31:52.083Z,3.92
2023-02-18T21:34:19.637Z,4.01
2023-02-18T21:36:47.180Z,3.93
2023-02-18T21:39:14.623Z,3.89
2023-02-18T21:41:42.176Z,3.91
2023-02-18T21:44:10.442Z,3.84
2023-02-18T21:46:39.435Z,3.84
2023-02-18T21:49:07.139Z,3.83
2023-02-18T21:51:56.433Z,3.80
2023-02-18T21:54:24.048Z,3.78
2023-02-18T21:56:51.975Z,3.80
2023-02-18T21:59:20.795Z,3.82
2023-02-18T22:01:48.919Z,3.83
2023-02-18T22:04:16.621Z,3.77
2023-02-18T22:06:44.556Z,3.84
2023-02-18T22:09:12.750Z,3.77
2023-02-18T22:11:43.503Z,3.70
2023-02-18T22:14:12.883Z,3.69
2023-02-18T22:16:41.441Z,3.71
2023-02-18T22:19:11.165Z,3.71
2023-02-18T22:21:39.543Z,3.71
2023-02-18T22:24:08.817Z,3.70
2023-02-18T22:26:37.074Z,3.67
2023-02-18T22:29:05.097Z,3.71
2023-02-18T22:31:35.645Z,3.75
2023-02-18T22:34:03.653Z,3.78
2023-02-18T22:36:32.953Z,3.87
2023-02-18T22:39:02.267Z,3.85
2023-02-18T22:41:33.226Z,3.92
2023-02-18T22:44:07.148Z,3.94
2023-02-18T22:46:36.983Z,4.01
2023-02-18T22:49:06.984Z,4.07
2023-02-18T22:51:39.704Z,4.12
2023-02-18T22:54:11.400Z,4.19
2023-02-18T22:56:39.172Z,4.18
2023-02-18T22:59:07.570Z,4.19
2023-02-18T23:01:38.753Z,4.19
2023-02-18T23:04:15.539Z,4.26
2023-02-18T23:06:45.390Z,4.29
2023-02-18T23:09:15.789Z,4.30
2023-02-18T23:11:43.995Z,4.32
2023-02-18T23:14:24.260Z,4.36
2023-02-18T23:17:14.012Z,4.39
2023-02-18T23:19:47.279Z,4.44
2023-02-18T23:22:19.398Z,4.51
2023-02-18T23:24:49.859Z,4.54
2023-02-18T23:27:17.676Z,4.61
2023-02-18T23:29:46.384Z,4.63
2023-02-18T23:32:16.980Z,4.63
2023-02-18T23:34:45.152Z,4.64
2023-02-18T23:37:13.448Z,4.64
2023-02-18T23:39:40.997Z,4.62
2023-02-18T23:42:10.291Z,4.62
2023-02-18T23:44:37.792Z,4.64
2023-02-18T23:47:06.525Z,4.66
2023-02-18T23:49:35.051Z,4.72
2023-02-18T23:52:02.791Z,4.74
2023-02-18T23:54:30.488Z,4.76
2023-02-18T23:56:57.977Z,4.79
2023-02-18T23:59:26.209Z,4.82
